NZOH/OHA METAR and TAF weather

Enter ICAO airport designator
Station Type Date Time Source
NZOH METAR 2021/04/12 19:00 UTC NOAA

NZOH 121900Z 03003KT 30KM SCT050 14/13 Q1007 TEMPO 4000 SHRA


Station Type Date Time Source
NZOH Decoded METAR 2021/04/12 19:00 UTC NOAA

Ohakea, New Zealand (NZOH) 40-12S 175-22E 52M
Apr 12, 2021 - 03:00 PM EDT / 2021.04.12 1900 UTC
Wind: from the NNE (030 degrees) at 3 MPH (3 KT):0
Sky conditions: partly cloudy
Temperature: 57 F (14 C)
Dew Point: 55 F (13 C)
Relative Humidity: 93%
Pressure (altimeter): 29.74 in. Hg (1007 hPa)
ob: NZOH 121900Z 03003KT 30KM SCT050 14/13 Q1007 TEMPO 4000 SHRA
cycle: 19

Station Type Date Time Source
NZOH TAF 2007/12/14 04:59 UTC NOAA

TAF NZOH 140459Z 140606 11020KT 30KM SCT080 BECMH 0911 03008KT
BECMG 2224 27012KT

Example: see airport list